Needmore, Pennsylvania
Current Conditions -  °F | °C
As of 4:53 AM on Sunday 21 Dec 2014 (Local Time) from KHGR Reporting Station
Haze Haze  
Wind Chill: 29°   Ceiling: 3500
Heat Index: 29°   Visibility: 6mi
Dew Point: 22°   Wind: 0mph
Humidity: 75%   Direction: NA
Pressure: 30.28"   Gusts: NA
Location:  39.85°N, 78.14°W
Report Text: KHGR 210953Z AUTO 00000KT 6SM HZ BKN035 OVC060 M02/M06 A3028 RMK AO2 SLP270 T10171056
Loading
Personal Weather Stations






























Interactive Weather Map New forecast layout! Learn more

10-Day Weather Forecast

Advertisements
Track Severe Weather on mobile